createdAt,value
2023-05-25T00:03:05.014Z,93.15
2023-05-25T00:08:09.054Z,93.36
2023-05-25T00:13:12.809Z,93.49
2023-05-25T00:18:16.523Z,93.80
2023-05-25T00:23:21.763Z,93.80
2023-05-25T00:28:25.616Z,94.00
2023-05-25T00:33:29.655Z,94.47
2023-05-25T00:38:33.389Z,94.78
2023-05-25T00:43:37.240Z,94.92
2023-05-25T00:48:41.224Z,94.95
2023-05-25T00:53:44.988Z,95.03
2023-05-25T00:58:51.194Z,94.95
2023-05-25T01:03:56.846Z,94.90
2023-05-25T01:09:04.696Z,94.71
2023-05-25T01:14:09.595Z,94.45
2023-05-25T01:19:13.638Z,94.23
2023-05-25T01:24:32.781Z,94.21
2023-05-25T01:29:38.002Z,94.06
2023-05-25T01:34:44.264Z,93.91
2023-05-25T01:39:48.073Z,93.83
2023-05-25T01:44:51.930Z,93.64
2023-05-25T01:50:14.458Z,93.45
2023-05-25T01:55:19.851Z,93.48
2023-05-25T02:00:25.372Z,93.50
2023-05-25T02:05:29.358Z,93.75
2023-05-25T02:10:33.609Z,94.26
2023-05-25T02:15:38.095Z,94.87
2023-05-25T02:20:41.967Z,94.87
2023-05-25T02:25:46.851Z,94.56
2023-05-25T02:30:50.796Z,94.33
2023-05-25T02:35:55.766Z,94.34
2023-05-25T02:40:59.656Z,94.34
2023-05-25T02:46:03.612Z,94.45
2023-05-25T02:51:07.717Z,94.43
2023-05-25T02:56:11.835Z,94.20
2023-05-25T03:01:19.416Z,93.85
2023-05-25T03:06:29.004Z,93.94
2023-05-25T03:11:35.247Z,94.35
2023-05-25T03:16:40.450Z,94.26
2023-05-25T03:21:44.409Z,94.00
2023-05-25T03:26:51.703Z,93.62
2023-05-25T03:31:55.638Z,92.15
2023-05-25T03:37:04.078Z,91.93
2023-05-25T03:42:08.576Z,91.76
2023-05-25T03:47:13.898Z,90.69
2023-05-25T03:52:17.695Z,90.45
2023-05-25T03:57:21.711Z,89.76
2023-05-25T04:02:25.565Z,90.42
2023-05-25T04:07:31.463Z,90.20
2023-05-25T04:12:36.676Z,91.06
2023-05-25T04:17:41.520Z,90.21
2023-05-25T04:22:45.415Z,90.99
2023-05-25T04:27:49.612Z,91.48
2023-05-25T04:33:04.372Z,92.62
2023-05-25T04:38:27.454Z,90.65
2023-05-25T04:43:31.439Z,90.20
2023-05-25T04:48:39.516Z,90.50
2023-05-25T04:53:43.544Z,91.08
2023-05-25T04:58:47.501Z,91.41
2023-05-25T05:03:51.888Z,91.42
2023-05-25T05:08:58.099Z,90.66
2023-05-25T05:14:01.986Z,90.80
2023-05-25T05:19:06.564Z,90.69
2023-05-25T05:24:11.252Z,89.76
2023-05-25T05:29:15.047Z,89.83
2023-05-25T05:34:21.716Z,89.71
2023-05-25T05:39:25.661Z,89.36
2023-05-25T05:44:32.382Z,89.35
2023-05-25T05:49:39.646Z,89.07
2023-05-25T05:54:43.737Z,88.39
2023-05-25T05:59:51.003Z,88.27
2023-05-25T06:04:55.376Z,87.70
2023-05-25T06:10:03.932Z,87.63
2023-05-25T06:15:16.336Z,86.93
2023-05-25T06:20:22.777Z,86.82
2023-05-25T06:25:27.155Z,86.74
2023-05-25T06:30:32.145Z,86.69
2023-05-25T06:35:36.065Z,86.34
2023-05-25T06:40:40.078Z,85.77
2023-05-25T06:45:44.351Z,85.07
2023-05-25T06:50:49.141Z,84.68
2023-05-25T06:55:53.223Z,84.32
2023-05-25T07:00:57.085Z,84.05
2023-05-25T07:06:00.926Z,82.75
2023-05-25T07:11:05.150Z,82.73
2023-05-25T07:16:08.973Z,82.85
2023-05-25T07:21:12.735Z,81.87
2023-05-25T07:26:17.034Z,81.34
2023-05-25T07:31:20.913Z,81.31
2023-05-25T07:36:25.259Z,80.83
2023-05-25T07:41:28.926Z,78.46
2023-05-25T07:46:32.747Z,78.12
2023-05-25T07:51:37.036Z,77.53
2023-05-25T07:56:40.908Z,76.74
2023-05-25T08:01:44.704Z,74.67
2023-05-25T08:06:48.514Z,76.13
2023-05-25T08:11:52.382Z,74.34
2023-05-25T08:16:59.833Z,75.28
2023-05-25T08:22:03.798Z,75.50
2023-05-25T08:27:07.479Z,74.39
2023-05-25T08:32:11.454Z,73.53
2023-05-25T08:37:15.259Z,72.82
2023-05-25T08:42:19.129Z,73.74
2023-05-25T08:47:23.848Z,72.96
2023-05-25T08:52:30.050Z,73.75
2023-05-25T08:57:42.695Z,72.59
2023-05-25T09:03:07.584Z,71.64
2023-05-25T09:08:11.882Z,71.15
2023-05-25T09:18:22.990Z,69.91
2023-05-25T09:23:26.968Z,70.48
2023-05-25T09:28:30.705Z,68.49
2023-05-25T09:33:36.879Z,68.92
2023-05-25T09:38:41.706Z,65.00
2023-05-25T09:44:02.196Z,64.68
2023-05-25T09:49:12.590Z,63.14
2023-05-25T09:54:16.898Z,62.70
2023-05-25T09:59:22.573Z,59.99
2023-05-25T10:04:26.557Z,61.13
2023-05-25T10:09:31.009Z,60.26
2023-05-25T10:14:37.449Z,60.50
2023-05-25T10:19:49.616Z,61.73
2023-05-25T10:25:12.087Z,60.80
2023-05-25T10:30:16.812Z,60.30
2023-05-25T10:35:21.889Z,59.21
2023-05-25T10:40:25.710Z,60.18
2023-05-25T10:45:31.122Z,59.19
2023-05-25T10:50:38.051Z,59.18
2023-05-25T10:55:49.702Z,60.71
2023-05-25T11:01:08.683Z,58.02
2023-05-25T11:06:17.162Z,59.38
2023-05-25T11:11:21.388Z,58.42
2023-05-25T11:16:29.813Z,59.27
2023-05-25T11:21:37.130Z,60.71
2023-05-25T11:26:56.960Z,58.45
2023-05-25T11:32:01.538Z,57.90
2023-05-25T11:37:05.479Z,58.26
2023-05-25T11:42:11.764Z,57.79
2023-05-25T11:47:19.303Z,58.07
2023-05-25T11:52:25.412Z,59.17
2023-05-25T11:57:29.378Z,59.78
2023-05-25T12:02:44.002Z,59.52
2023-05-25T12:07:48.154Z,59.76
2023-05-25T12:12:52.588Z,59.14
2023-05-25T12:17:57.453Z,58.92
2023-05-25T12:23:02.183Z,58.02
2023-05-25T12:28:12.715Z,58.47
2023-05-25T12:33:16.668Z,58.68
2023-05-25T12:38:24.328Z,59.83
2023-05-25T12:43:45.787Z,59.89
2023-05-25T12:48:49.587Z,58.14
2023-05-25T12:53:54.647Z,58.55
2023-05-25T12:59:16.882Z,58.04
2023-05-25T13:04:20.776Z,59.36
2023-05-25T13:09:29.123Z,57.31
2023-05-25T13:14:32.969Z,54.62
2023-05-25T13:19:37.302Z,54.52
2023-05-25T13:24:41.440Z,55.70
2023-05-25T13:29:45.145Z,57.33
2023-05-25T13:34:54.413Z,57.03
2023-05-25T13:40:01.151Z,58.12
2023-05-25T13:45:08.710Z,57.56
2023-05-25T13:50:12.626Z,57.12
2023-05-25T13:55:16.574Z,57.53
2023-05-25T14:00:20.631Z,56.80
2023-05-25T14:05:24.793Z,56.39
2023-05-25T14:10:28.917Z,56.43
2023-05-25T14:15:33.080Z,56.41
2023-05-25T14:20:38.421Z,53.63
2023-05-25T14:25:45.577Z,53.94
2023-05-25T14:30:50.059Z,53.21
2023-05-25T14:35:53.837Z,53.38
2023-05-25T14:40:57.637Z,54.69
2023-05-25T14:46:01.510Z,52.36
2023-05-25T14:51:06.216Z,53.40
2023-05-25T14:56:11.291Z,52.84
2023-05-25T15:01:15.281Z,52.52
2023-05-25T15:06:19.024Z,52.91
2023-05-25T15:11:22.814Z,54.84
2023-05-25T15:16:26.653Z,54.71
2023-05-25T15:21:30.860Z,54.58
2023-05-25T15:26:34.914Z,55.00
2023-05-25T15:31:38.781Z,54.50
2023-05-25T15:36:45.630Z,53.13
2023-05-25T15:41:56.933Z,53.47
2023-05-25T15:47:03.943Z,53.51
2023-05-25T15:52:08.092Z,54.95
2023-05-25T15:57:15.448Z,54.39
2023-05-25T16:02:20.125Z,54.30
2023-05-25T16:07:24.064Z,54.31
2023-05-25T16:12:28.613Z,52.79
2023-05-25T16:17:32.569Z,52.97
2023-05-25T16:22:36.342Z,52.96
2023-05-25T16:27:40.214Z,53.66
2023-05-25T16:32:43.999Z,53.09
2023-05-25T16:37:47.789Z,53.93
2023-05-25T16:42:51.727Z,54.84
2023-05-25T16:47:55.462Z,55.87
2023-05-25T16:52:59.361Z,56.13
2023-05-25T16:58:03.433Z,52.33
2023-05-25T17:03:07.498Z,48.94
2023-05-25T17:08:12.577Z,48.59
2023-05-25T17:13:18.882Z,44.54
2023-05-25T17:18:22.774Z,43.15
2023-05-25T17:23:27.384Z,45.85
2023-05-25T17:28:33.221Z,44.70
2023-05-25T17:33:36.948Z,45.47
2023-05-25T17:38:41.653Z,48.14
2023-05-25T17:43:46.728Z,49.61
2023-05-25T17:48:50.806Z,50.83
2023-05-25T17:53:54.621Z,52.34
2023-05-25T17:58:58.392Z,52.85
2023-05-25T18:04:02.592Z,54.26
2023-05-25T18:09:06.413Z,56.14
2023-05-25T18:14:10.706Z,56.59
2023-05-25T18:19:21.552Z,57.66
2023-05-25T18:24:28.950Z,58.61
2023-05-25T18:29:33.075Z,60.02
2023-05-25T18:34:37.224Z,60.69
2023-05-25T18:39:42.505Z,61.22
2023-05-25T18:44:46.802Z,62.62
2023-05-25T18:49:51.977Z,63.71
2023-05-25T18:54:56.445Z,64.89
2023-05-25T19:00:07.882Z,65.91
2023-05-25T19:05:11.991Z,67.02
2023-05-25T19:10:16.288Z,68.30
2023-05-25T19:15:20.659Z,69.07
2023-05-25T19:20:28.638Z,70.42
2023-05-25T19:25:32.747Z,71.14
2023-05-25T19:30:36.940Z,71.50
2023-05-25T19:35:42.059Z,71.26
2023-05-25T19:40:46.548Z,71.77
2023-05-25T19:45:50.915Z,72.20
2023-05-25T19:50:54.938Z,73.11
2023-05-25T19:56:00.181Z,73.49
2023-05-25T20:01:04.316Z,74.31
2023-05-25T20:06:08.782Z,75.49
2023-05-25T20:11:13.481Z,76.40
2023-05-25T20:16:17.523Z,78.69
2023-05-25T20:21:22.466Z,79.97
2023-05-25T20:26:26.310Z,80.59
2023-05-25T20:31:30.139Z,80.75
2023-05-25T20:36:33.930Z,79.88
2023-05-25T20:41:38.343Z,79.66
2023-05-25T20:46:42.568Z,79.92
2023-05-25T20:51:50.558Z,80.40
2023-05-25T20:56:55.403Z,81.01
2023-05-25T21:01:59.612Z,81.09
2023-05-25T21:07:03.891Z,81.38
2023-05-25T21:12:07.955Z,82.08
2023-05-25T21:17:12.030Z,85.65
2023-05-25T21:22:16.604Z,86.12
2023-05-25T21:27:20.381Z,85.66
2023-05-25T21:32:24.371Z,85.81
2023-05-25T21:37:28.639Z,86.68
2023-05-25T21:42:32.461Z,86.76
2023-05-25T21:47:36.215Z,87.73
2023-05-25T21:52:40.384Z,88.47
2023-05-25T21:57:44.347Z,87.92
2023-05-25T22:02:49.280Z,90.14
2023-05-25T22:07:54.994Z,89.74
2023-05-25T22:12:59.412Z,90.55
2023-05-25T22:18:03.131Z,89.67
2023-05-25T22:23:07.628Z,90.30
2023-05-25T22:28:11.512Z,89.82
2023-05-25T22:33:15.242Z,89.87
2023-05-25T22:38:18.921Z,90.50
2023-05-25T22:43:22.434Z,89.92
2023-05-25T22:48:26.584Z,89.30
2023-05-25T22:53:30.271Z,89.58
2023-05-25T22:58:33.936Z,89.28
2023-05-25T23:03:37.590Z,89.63
2023-05-25T23:08:41.282Z,89.35
2023-05-25T23:13:45.562Z,89.25
2023-05-25T23:18:49.080Z,89.39
2023-05-25T23:23:52.556Z,90.10
2023-05-25T23:28:56.253Z,90.96
2023-05-25T23:34:00.592Z,90.68
2023-05-25T23:45:58.984Z,90.25
2023-05-25T23:51:02.823Z,90.87
2023-05-25T23:56:06.768Z,91.48
